Terminal Aerodrome Forecast
Issued by NWS

Home | Current Version | Previous Version | Text Only | Print | Product List | Glossary On
Versions: 1 2 3 4 5 6 7 8 9 10 11 12 13 14
528
FTUS41 KPHI 042320
TAFMIV
TAF
KMIV 042320Z 0500/0524 VRB02KT P6SM SCT040 OVC120
     FM050700 15005KT 5SM -RA SCT015 OVC025
     FM051100 VRB05KT 3SM -RA BR BKN009 OVC015
     FM051700 29009KT P6SM SCT015 OVC025=

USA.gov is the U.S. government's official web portal to all federal, state and local government web resources and services.